sensor_id;sensor_type;location;lat;lon;timestamp;P1;durP1;ratioP1;P2;durP2;ratioP2
9948;SDS011;5013;51.840;8.276;2022-12-08T00:00:54;27.03;;;19.70;;
9948;SDS011;5013;51.840;8.276;2022-12-08T00:03:20;24.07;;;19.20;;
9948;SDS011;5013;51.840;8.276;2022-12-08T00:05:46;25.17;;;19.30;;
9948;SDS011;5013;51.840;8.276;2022-12-08T00:08:32;27.23;;;19.77;;
9948;SDS011;5013;51.840;8.276;2022-12-08T00:11:17;27.07;;;19.67;;
9948;SDS011;5013;51.840;8.276;2022-12-08T00:13:43;21.23;;;17.87;;
9948;SDS011;5013;51.840;8.276;2022-12-08T00:16:09;31.07;;;20.20;;
9948;SDS011;5013;51.840;8.276;2022-12-08T00:18:35;26.00;;;19.20;;
9948;SDS011;5013;51.840;8.276;2022-12-08T00:21:01;24.57;;;19.77;;
9948;SDS011;5013;51.840;8.276;2022-12-08T00:23:27;23.03;;;19.07;;
9948;SDS011;5013;51.840;8.276;2022-12-08T00:25:53;32.03;;;22.50;;
9948;SDS011;5013;51.840;8.276;2022-12-08T00:28:18;28.60;;;20.67;;
9948;SDS011;5013;51.840;8.276;2022-12-08T00:30:44;24.57;;;18.57;;
9948;SDS011;5013;51.840;8.276;2022-12-08T00:33:09;26.70;;;20.70;;
9948;SDS011;5013;51.840;8.276;2022-12-08T00:35:35;28.43;;;20.90;;
9948;SDS011;5013;51.840;8.276;2022-12-08T00:38:01;28.60;;;21.40;;
9948;SDS011;5013;51.840;8.276;2022-12-08T00:40:27;23.50;;;19.63;;
9948;SDS011;5013;51.840;8.276;2022-12-08T00:42:52;26.87;;;19.73;;
9948;SDS011;5013;51.840;8.276;2022-12-08T00:45:18;29.23;;;20.20;;
9948;SDS011;5013;51.840;8.276;2022-12-08T00:47:44;25.10;;;20.87;;
9948;SDS011;5013;51.840;8.276;2022-12-08T00:50:09;23.53;;;18.33;;
9948;SDS011;5013;51.840;8.276;2022-12-08T00:52:35;22.10;;;18.67;;
9948;SDS011;5013;51.840;8.276;2022-12-08T00:55:01;29.13;;;20.47;;
9948;SDS011;5013;51.840;8.276;2022-12-08T00:57:27;20.50;;;16.87;;
9948;SDS011;5013;51.840;8.276;2022-12-08T00:59:52;23.90;;;17.23;;
9948;SDS011;5013;51.840;8.276;2022-12-08T01:02:18;24.87;;;18.13;;
9948;SDS011;5013;51.840;8.276;2022-12-08T01:04:43;23.63;;;18.10;;
9948;SDS011;5013;51.840;8.276;2022-12-08T01:07:09;24.73;;;17.73;;
9948;SDS011;5013;51.840;8.276;2022-12-08T01:09:35;21.07;;;16.00;;
9948;SDS011;5013;51.840;8.276;2022-12-08T01:12:01;19.67;;;16.13;;
9948;SDS011;5013;51.840;8.276;2022-12-08T01:14:27;20.57;;;16.20;;
9948;SDS011;5013;51.840;8.276;2022-12-08T01:16:52;17.40;;;15.30;;
9948;SDS011;5013;51.840;8.276;2022-12-08T01:19:18;21.83;;;16.30;;
9948;SDS011;5013;51.840;8.276;2022-12-08T01:21:44;22.57;;;15.70;;
9948;SDS011;5013;51.840;8.276;2022-12-08T01:24:11;20.60;;;15.27;;
9948;SDS011;5013;51.840;8.276;2022-12-08T01:26:38;21.50;;;17.60;;
9948;SDS011;5013;51.840;8.276;2022-12-08T01:29:03;20.33;;;17.73;;
9948;SDS011;5013;51.840;8.276;2022-12-08T01:31:29;23.57;;;17.73;;
9948;SDS011;5013;51.840;8.276;2022-12-08T01:33:55;21.30;;;17.27;;
9948;SDS011;5013;51.840;8.276;2022-12-08T01:36:25;24.67;;;18.60;;
9948;SDS011;5013;51.840;8.276;2022-12-08T01:38:52;27.10;;;17.50;;
9948;SDS011;5013;51.840;8.276;2022-12-08T01:41:22;22.50;;;17.87;;
9948;SDS011;5013;51.840;8.276;2022-12-08T01:46:32;23.60;;;18.30;;
9948;SDS011;5013;51.840;8.276;2022-12-08T01:49:03;25.37;;;19.27;;
9948;SDS011;5013;51.840;8.276;2022-12-08T01:54:38;26.70;;;20.63;;
9948;SDS011;5013;51.840;8.276;2022-12-08T01:57:11;31.43;;;22.57;;
9948;SDS011;5013;51.840;8.276;2022-12-08T02:00:00;29.53;;;19.80;;
9948;SDS011;5013;51.840;8.276;2022-12-08T02:02:32;29.23;;;22.10;;
9948;SDS011;5013;51.840;8.276;2022-12-08T02:05:04;31.27;;;23.50;;
9948;SDS011;5013;51.840;8.276;2022-12-08T02:07:30;33.23;;;22.83;;
9948;SDS011;5013;51.840;8.276;2022-12-08T02:09:56;34.40;;;25.13;;
9948;SDS011;5013;51.840;8.276;2022-12-08T02:12:22;34.07;;;23.13;;
9948;SDS011;5013;51.840;8.276;2022-12-08T02:14:47;32.47;;;23.83;;
9948;SDS011;5013;51.840;8.276;2022-12-08T02:20:11;37.13;;;26.93;;
9948;SDS011;5013;51.840;8.276;2022-12-08T02:22:52;45.13;;;31.80;;
9948;SDS011;5013;51.840;8.276;2022-12-08T02:25:45;48.53;;;32.97;;
9948;SDS011;5013;51.840;8.276;2022-12-08T02:36:25;46.43;;;36.37;;
9948;SDS011;5013;51.840;8.276;2022-12-08T02:38:58;47.97;;;35.50;;
9948;SDS011;5013;51.840;8.276;2022-12-08T02:41:48;49.37;;;37.90;;
9948;SDS011;5013;51.840;8.276;2022-12-08T02:47:19;57.83;;;39.77;;
9948;SDS011;5013;51.840;8.276;2022-12-08T02:49:47;51.27;;;37.93;;
9948;SDS011;5013;51.840;8.276;2022-12-08T02:54:45;46.90;;;37.03;;
9948;SDS011;5013;51.840;8.276;2022-12-08T03:00:08;46.07;;;35.93;;
9948;SDS011;5013;51.840;8.276;2022-12-08T03:02:42;48.10;;;35.50;;
9948;SDS011;5013;51.840;8.276;2022-12-08T03:10:39;47.60;;;38.17;;
9948;SDS011;5013;51.840;8.276;2022-12-08T03:13:40;49.70;;;36.13;;
9948;SDS011;5013;51.840;8.276;2022-12-08T03:16:09;47.40;;;37.53;;
9948;SDS011;5013;51.840;8.276;2022-12-08T03:18:39;45.30;;;35.27;;
9948;SDS011;5013;51.840;8.276;2022-12-08T03:21:11;47.77;;;35.40;;
9948;SDS011;5013;51.840;8.276;2022-12-08T03:23:39;48.80;;;36.37;;
9948;SDS011;5013;51.840;8.276;2022-12-08T03:26:13;48.30;;;37.07;;
9948;SDS011;5013;51.840;8.276;2022-12-08T03:29:04;45.40;;;35.83;;
9948;SDS011;5013;51.840;8.276;2022-12-08T03:31:31;49.37;;;37.50;;
9948;SDS011;5013;51.840;8.276;2022-12-08T03:34:02;47.97;;;38.13;;
9948;SDS011;5013;51.840;8.276;2022-12-08T03:36:29;47.63;;;37.67;;
9948;SDS011;5013;51.840;8.276;2022-12-08T03:38:56;45.60;;;35.53;;
9948;SDS011;5013;51.840;8.276;2022-12-08T03:41:21;44.17;;;36.57;;
9948;SDS011;5013;51.840;8.276;2022-12-08T03:43:48;49.77;;;37.90;;
9948;SDS011;5013;51.840;8.276;2022-12-08T03:46:14;44.83;;;37.67;;
9948;SDS011;5013;51.840;8.276;2022-12-08T03:48:41;47.93;;;36.63;;
9948;SDS011;5013;51.840;8.276;2022-12-08T03:51:06;47.57;;;38.60;;
9948;SDS011;5013;51.840;8.276;2022-12-08T03:53:32;42.60;;;34.07;;
9948;SDS011;5013;51.840;8.276;2022-12-08T03:55:58;40.20;;;32.87;;
9948;SDS011;5013;51.840;8.276;2022-12-08T03:58:24;51.17;;;37.23;;
9948;SDS011;5013;51.840;8.276;2022-12-08T04:00:49;43.43;;;33.43;;
9948;SDS011;5013;51.840;8.276;2022-12-08T04:03:15;51.70;;;37.63;;
9948;SDS011;5013;51.840;8.276;2022-12-08T04:05:41;43.43;;;34.87;;
9948;SDS011;5013;51.840;8.276;2022-12-08T04:08:06;38.27;;;32.97;;
9948;SDS011;5013;51.840;8.276;2022-12-08T04:10:32;41.60;;;34.07;;
9948;SDS011;5013;51.840;8.276;2022-12-08T04:12:57;42.33;;;33.23;;
9948;SDS011;5013;51.840;8.276;2022-12-08T04:15:23;45.03;;;35.03;;
9948;SDS011;5013;51.840;8.276;2022-12-08T04:17:48;42.00;;;34.47;;
9948;SDS011;5013;51.840;8.276;2022-12-08T04:20:14;49.60;;;35.63;;
9948;SDS011;5013;51.840;8.276;2022-12-08T04:22:40;41.53;;;35.70;;
9948;SDS011;5013;51.840;8.276;2022-12-08T04:25:05;49.23;;;36.97;;
9948;SDS011;5013;51.840;8.276;2022-12-08T04:27:31;46.87;;;37.80;;
9948;SDS011;5013;51.840;8.276;2022-12-08T04:29:57;50.20;;;39.30;;
9948;SDS011;5013;51.840;8.276;2022-12-08T04:32:22;51.73;;;42.50;;
9948;SDS011;5013;51.840;8.276;2022-12-08T04:34:48;51.10;;;41.60;;
9948;SDS011;5013;51.840;8.276;2022-12-08T04:37:13;58.57;;;44.63;;
9948;SDS011;5013;51.840;8.276;2022-12-08T04:39:39;55.53;;;43.33;;
9948;SDS011;5013;51.840;8.276;2022-12-08T04:42:04;48.77;;;38.13;;
9948;SDS011;5013;51.840;8.276;2022-12-08T04:44:30;58.13;;;43.50;;
9948;SDS011;5013;51.840;8.276;2022-12-08T04:46:56;49.53;;;41.23;;
9948;SDS011;5013;51.840;8.276;2022-12-08T04:49:21;53.33;;;41.67;;
9948;SDS011;5013;51.840;8.276;2022-12-08T04:51:47;50.33;;;38.17;;
9948;SDS011;5013;51.840;8.276;2022-12-08T04:54:13;52.93;;;41.53;;
9948;SDS011;5013;51.840;8.276;2022-12-08T04:56:38;52.37;;;39.93;;
9948;SDS011;5013;51.840;8.276;2022-12-08T05:01:50;55.80;;;43.47;;
9948;SDS011;5013;51.840;8.276;2022-12-08T05:04:16;51.70;;;42.03;;
9948;SDS011;5013;51.840;8.276;2022-12-08T05:06:41;59.27;;;43.43;;
9948;SDS011;5013;51.840;8.276;2022-12-08T05:09:07;59.33;;;43.80;;
9948;SDS011;5013;51.840;8.276;2022-12-08T05:11:32;56.23;;;42.73;;
9948;SDS011;5013;51.840;8.276;2022-12-08T05:13:58;62.07;;;47.00;;
9948;SDS011;5013;51.840;8.276;2022-12-08T05:16:23;56.40;;;44.77;;
9948;SDS011;5013;51.840;8.276;2022-12-08T05:18:49;71.00;;;48.20;;
9948;SDS011;5013;51.840;8.276;2022-12-08T05:21:15;65.80;;;46.83;;
9948;SDS011;5013;51.840;8.276;2022-12-08T05:23:40;72.03;;;49.07;;
9948;SDS011;5013;51.840;8.276;2022-12-08T05:26:06;65.37;;;48.17;;
9948;SDS011;5013;51.840;8.276;2022-12-08T05:28:31;62.07;;;47.33;;
9948;SDS011;5013;51.840;8.276;2022-12-08T05:30:57;64.90;;;47.20;;
9948;SDS011;5013;51.840;8.276;2022-12-08T05:33:23;66.23;;;44.37;;
9948;SDS011;5013;51.840;8.276;2022-12-08T05:35:48;67.43;;;48.07;;
9948;SDS011;5013;51.840;8.276;2022-12-08T05:38:14;63.40;;;45.27;;
9948;SDS011;5013;51.840;8.276;2022-12-08T05:40:40;68.50;;;45.97;;
9948;SDS011;5013;51.840;8.276;2022-12-08T05:43:06;68.63;;;47.10;;
9948;SDS011;5013;51.840;8.276;2022-12-08T05:45:32;70.87;;;48.20;;
9948;SDS011;5013;51.840;8.276;2022-12-08T05:47:57;70.47;;;48.33;;
9948;SDS011;5013;51.840;8.276;2022-12-08T05:50:23;65.83;;;43.87;;
9948;SDS011;5013;51.840;8.276;2022-12-08T05:52:49;65.67;;;47.20;;
9948;SDS011;5013;51.840;8.276;2022-12-08T05:55:14;66.33;;;44.57;;
9948;SDS011;5013;51.840;8.276;2022-12-08T05:57:40;55.87;;;43.03;;
9948;SDS011;5013;51.840;8.276;2022-12-08T06:00:06;61.50;;;43.27;;
9948;SDS011;5013;51.840;8.276;2022-12-08T06:02:32;64.13;;;43.90;;
9948;SDS011;5013;51.840;8.276;2022-12-08T06:04:58;60.80;;;43.60;;
9948;SDS011;5013;51.840;8.276;2022-12-08T06:07:23;66.97;;;45.03;;
9948;SDS011;5013;51.840;8.276;2022-12-08T06:09:49;67.27;;;46.03;;
9948;SDS011;5013;51.840;8.276;2022-12-08T06:12:15;67.60;;;47.33;;
9948;SDS011;5013;51.840;8.276;2022-12-08T06:14:40;55.23;;;39.80;;
9948;SDS011;5013;51.840;8.276;2022-12-08T06:17:06;69.33;;;43.97;;
9948;SDS011;5013;51.840;8.276;2022-12-08T06:19:32;66.43;;;45.60;;
9948;SDS011;5013;51.840;8.276;2022-12-08T06:21:57;63.20;;;42.90;;
9948;SDS011;5013;51.840;8.276;2022-12-08T06:24:23;71.97;;;47.60;;
9948;SDS011;5013;51.840;8.276;2022-12-08T06:26:48;76.07;;;48.57;;
9948;SDS011;5013;51.840;8.276;2022-12-08T06:32:36;73.47;;;45.80;;
9948;SDS011;5013;51.840;8.276;2022-12-08T06:35:02;70.23;;;46.33;;
9948;SDS011;5013;51.840;8.276;2022-12-08T06:37:28;70.97;;;46.83;;
9948;SDS011;5013;51.840;8.276;2022-12-08T06:39:53;72.80;;;47.00;;
9948;SDS011;5013;51.840;8.276;2022-12-08T06:42:19;73.87;;;47.33;;
9948;SDS011;5013;51.840;8.276;2022-12-08T06:45:03;67.87;;;45.43;;
9948;SDS011;5013;51.840;8.276;2022-12-08T06:47:29;67.07;;;43.57;;
9948;SDS011;5013;51.840;8.276;2022-12-08T06:49:54;61.03;;;41.93;;
9948;SDS011;5013;51.840;8.276;2022-12-08T06:52:21;65.17;;;43.77;;
9948;SDS011;5013;51.840;8.276;2022-12-08T06:54:46;62.47;;;43.03;;
9948;SDS011;5013;51.840;8.276;2022-12-08T06:57:12;63.17;;;42.20;;
9948;SDS011;5013;51.840;8.276;2022-12-08T06:59:37;66.73;;;43.47;;
9948;SDS011;5013;51.840;8.276;2022-12-08T07:02:03;53.07;;;38.27;;
9948;SDS011;5013;51.840;8.276;2022-12-08T07:04:29;56.23;;;39.03;;
9948;SDS011;5013;51.840;8.276;2022-12-08T07:06:54;61.00;;;41.13;;
9948;SDS011;5013;51.840;8.276;2022-12-08T07:09:20;66.27;;;41.13;;
9948;SDS011;5013;51.840;8.276;2022-12-08T07:11:46;56.10;;;37.70;;
9948;SDS011;5013;51.840;8.276;2022-12-08T07:14:12;54.50;;;36.53;;
9948;SDS011;5013;51.840;8.276;2022-12-08T07:16:37;52.40;;;34.97;;
9948;SDS011;5013;51.840;8.276;2022-12-08T07:19:03;42.37;;;31.47;;
9948;SDS011;5013;51.840;8.276;2022-12-08T07:21:29;42.23;;;29.37;;
9948;SDS011;5013;51.840;8.276;2022-12-08T07:23:55;40.30;;;28.97;;
9948;SDS011;5013;51.840;8.276;2022-12-08T07:26:21;45.87;;;29.87;;
9948;SDS011;5013;51.840;8.276;2022-12-08T07:28:46;41.33;;;29.67;;
9948;SDS011;5013;51.840;8.276;2022-12-08T07:31:19;43.30;;;28.27;;
9948;SDS011;5013;51.840;8.276;2022-12-08T07:33:47;36.93;;;27.73;;
9948;SDS011;5013;51.840;8.276;2022-12-08T07:36:14;38.57;;;28.10;;
9948;SDS011;5013;51.840;8.276;2022-12-08T07:38:40;36.30;;;26.17;;
9948;SDS011;5013;51.840;8.276;2022-12-08T07:41:10;40.80;;;28.57;;
9948;SDS011;5013;51.840;8.276;2022-12-08T07:43:37;36.80;;;26.87;;
9948;SDS011;5013;51.840;8.276;2022-12-08T07:46:02;43.70;;;27.97;;
9948;SDS011;5013;51.840;8.276;2022-12-08T07:48:28;34.83;;;26.07;;
9948;SDS011;5013;51.840;8.276;2022-12-08T07:51:01;42.33;;;29.40;;
9948;SDS011;5013;51.840;8.276;2022-12-08T07:53:28;43.70;;;32.80;;
9948;SDS011;5013;51.840;8.276;2022-12-08T07:55:54;39.60;;;28.47;;
9948;SDS011;5013;51.840;8.276;2022-12-08T07:58:19;38.27;;;31.37;;
9948;SDS011;5013;51.840;8.276;2022-12-08T08:00:45;35.07;;;26.87;;
9948;SDS011;5013;51.840;8.276;2022-12-08T08:03:11;39.27;;;28.47;;
9948;SDS011;5013;51.840;8.276;2022-12-08T08:05:36;39.57;;;28.40;;
9948;SDS011;5013;51.840;8.276;2022-12-08T08:08:02;36.00;;;27.10;;
9948;SDS011;5013;51.840;8.276;2022-12-08T08:10:28;44.37;;;30.90;;
9948;SDS011;5013;51.840;8.276;2022-12-08T08:12:56;46.50;;;29.53;;
9948;SDS011;5013;51.840;8.276;2022-12-08T08:15:23;39.17;;;28.90;;
9948;SDS011;5013;51.840;8.276;2022-12-08T08:17:49;35.03;;;26.63;;
9948;SDS011;5013;51.840;8.276;2022-12-08T08:20:15;42.80;;;30.30;;
9948;SDS011;5013;51.840;8.276;2022-12-08T08:22:47;43.70;;;30.23;;
9948;SDS011;5013;51.840;8.276;2022-12-08T08:25:14;45.57;;;30.27;;
9948;SDS011;5013;51.840;8.276;2022-12-08T08:27:40;32.93;;;25.97;;
9948;SDS011;5013;51.840;8.276;2022-12-08T08:30:06;37.27;;;27.70;;
9948;SDS011;5013;51.840;8.276;2022-12-08T08:32:33;42.10;;;27.03;;
9948;SDS011;5013;51.840;8.276;2022-12-08T08:35:00;35.77;;;25.80;;
9948;SDS011;5013;51.840;8.276;2022-12-08T08:37:25;33.00;;;26.30;;
9948;SDS011;5013;51.840;8.276;2022-12-08T08:39:51;36.10;;;25.40;;
9948;SDS011;5013;51.840;8.276;2022-12-08T08:42:17;32.80;;;25.33;;
9948;SDS011;5013;51.840;8.276;2022-12-08T08:44:43;31.40;;;23.80;;
9948;SDS011;5013;51.840;8.276;2022-12-08T08:47:09;30.07;;;23.33;;
9948;SDS011;5013;51.840;8.276;2022-12-08T08:49:35;29.87;;;23.37;;
9948;SDS011;5013;51.840;8.276;2022-12-08T08:52:01;30.07;;;21.23;;
9948;SDS011;5013;51.840;8.276;2022-12-08T08:54:27;29.80;;;22.30;;
9948;SDS011;5013;51.840;8.276;2022-12-08T08:56:53;27.60;;;22.03;;
9948;SDS011;5013;51.840;8.276;2022-12-08T08:59:20;28.90;;;22.27;;
9948;SDS011;5013;51.840;8.276;2022-12-08T09:01:46;29.93;;;22.83;;
9948;SDS011;5013;51.840;8.276;2022-12-08T09:04:11;28.50;;;21.53;;
9948;SDS011;5013;51.840;8.276;2022-12-08T09:06:37;21.17;;;17.97;;
9948;SDS011;5013;51.840;8.276;2022-12-08T09:09:03;24.93;;;20.40;;
9948;SDS011;5013;51.840;8.276;2022-12-08T09:11:28;24.57;;;19.63;;
9948;SDS011;5013;51.840;8.276;2022-12-08T09:13:54;22.50;;;18.60;;
9948;SDS011;5013;51.840;8.276;2022-12-08T09:16:20;21.90;;;18.13;;
9948;SDS011;5013;51.840;8.276;2022-12-08T09:18:46;22.43;;;17.20;;
9948;SDS011;5013;51.840;8.276;2022-12-08T09:21:13;23.30;;;18.33;;
9948;SDS011;5013;51.840;8.276;2022-12-08T09:23:44;22.70;;;20.13;;
9948;SDS011;5013;51.840;8.276;2022-12-08T09:26:10;21.07;;;18.37;;
9948;SDS011;5013;51.840;8.276;2022-12-08T09:28:36;16.93;;;15.17;;
9948;SDS011;5013;51.840;8.276;2022-12-08T09:31:02;19.23;;;17.13;;
9948;SDS011;5013;51.840;8.276;2022-12-08T09:33:28;17.40;;;15.50;;
9948;SDS011;5013;51.840;8.276;2022-12-08T09:35:54;22.20;;;16.73;;
9948;SDS011;5013;51.840;8.276;2022-12-08T09:38:19;16.20;;;14.50;;
9948;SDS011;5013;51.840;8.276;2022-12-08T09:40:52;16.97;;;14.60;;
9948;SDS011;5013;51.840;8.276;2022-12-08T09:46:11;14.73;;;13.23;;
9948;SDS011;5013;51.840;8.276;2022-12-08T09:48:40;13.13;;;11.83;;
9948;SDS011;5013;51.840;8.276;2022-12-08T09:51:09;12.77;;;11.57;;
9948;SDS011;5013;51.840;8.276;2022-12-08T09:56:14;13.40;;;12.00;;
9948;SDS011;5013;51.840;8.276;2022-12-08T09:58:50;12.73;;;11.13;;
9948;SDS011;5013;51.840;8.276;2022-12-08T10:01:22;12.70;;;11.40;;
9948;SDS011;5013;51.840;8.276;2022-12-08T10:03:55;11.30;;;10.23;;
9948;SDS011;5013;51.840;8.276;2022-12-08T10:06:31;13.10;;;11.80;;
9948;SDS011;5013;51.840;8.276;2022-12-08T10:09:09;12.17;;;11.00;;
9948;SDS011;5013;51.840;8.276;2022-12-08T10:15:57;11.80;;;10.70;;
9948;SDS011;5013;51.840;8.276;2022-12-08T10:18:09;12.43;;;11.13;;
9948;SDS011;5013;51.840;8.276;2022-12-08T10:20:49;9.73;;;8.87;;
9948;SDS011;5013;51.840;8.276;2022-12-08T10:25:57;8.40;;;7.70;;
9948;SDS011;5013;51.840;8.276;2022-12-08T10:28:35;8.73;;;7.80;;
9948;SDS011;5013;51.840;8.276;2022-12-08T10:31:00;8.57;;;7.77;;
9948;SDS011;5013;51.840;8.276;2022-12-08T10:33:26;9.10;;;8.30;;
9948;SDS011;5013;51.840;8.276;2022-12-08T10:35:55;9.90;;;9.00;;
9948;SDS011;5013;51.840;8.276;2022-12-08T10:41:00;9.27;;;8.37;;
9948;SDS011;5013;51.840;8.276;2022-12-08T10:43:34;6.93;;;6.43;;
9948;SDS011;5013;51.840;8.276;2022-12-08T10:46:09;7.30;;;6.80;;
9948;SDS011;5013;51.840;8.276;2022-12-08T10:48:47;6.60;;;6.00;;
9948;SDS011;5013;51.840;8.276;2022-12-08T10:51:46;8.27;;;7.37;;
9948;SDS011;5013;51.840;8.276;2022-12-08T10:56:58;8.37;;;6.40;;
9948;SDS011;5013;51.840;8.276;2022-12-08T10:59:23;6.47;;;5.97;;
9948;SDS011;5013;51.840;8.276;2022-12-08T11:01:50;6.20;;;5.80;;
9948;SDS011;5013;51.840;8.276;2022-12-08T11:06:49;7.37;;;6.77;;
9948;SDS011;5013;51.840;8.276;2022-12-08T11:14:15;9.10;;;8.30;;
9948;SDS011;5013;51.840;8.276;2022-12-08T11:16:48;7.07;;;6.43;;
9948;SDS011;5013;51.840;8.276;2022-12-08T11:19:18;7.23;;;6.67;;
9948;SDS011;5013;51.840;8.276;2022-12-08T11:21:45;7.47;;;6.87;;
9948;SDS011;5013;51.840;8.276;2022-12-08T11:26:40;7.43;;;6.80;;
9948;SDS011;5013;51.840;8.276;2022-12-08T11:29:12;8.77;;;7.97;;
9948;SDS011;5013;51.840;8.276;2022-12-08T11:31:43;8.90;;;8.13;;
9948;SDS011;5013;51.840;8.276;2022-12-08T11:34:18;8.83;;;8.13;;
9948;SDS011;5013;51.840;8.276;2022-12-08T11:36:46;8.20;;;7.50;;
9948;SDS011;5013;51.840;8.276;2022-12-08T11:39:13;8.40;;;7.70;;
9948;SDS011;5013;51.840;8.276;2022-12-08T11:41:40;8.97;;;8.07;;
9948;SDS011;5013;51.840;8.276;2022-12-08T11:47:00;7.90;;;7.30;;
9948;SDS011;5013;51.840;8.276;2022-12-08T11:49:37;7.83;;;7.13;;
9948;SDS011;5013;51.840;8.276;2022-12-08T11:52:07;7.60;;;7.00;;
9948;SDS011;5013;51.840;8.276;2022-12-08T11:54:44;7.17;;;6.67;;
9948;SDS011;5013;51.840;8.276;2022-12-08T11:57:14;7.67;;;6.93;;
9948;SDS011;5013;51.840;8.276;2022-12-08T11:59:44;8.23;;;7.53;;
9948;SDS011;5013;51.840;8.276;2022-12-08T12:05:40;7.70;;;7.10;;
9948;SDS011;5013;51.840;8.276;2022-12-08T12:08:39;7.43;;;6.73;;
9948;SDS011;5013;51.840;8.276;2022-12-08T12:14:45;6.47;;;5.93;;
9948;SDS011;5013;51.840;8.276;2022-12-08T12:20:30;6.00;;;5.50;;
9948;SDS011;5013;51.840;8.276;2022-12-08T12:23:17;5.90;;;5.50;;
9948;SDS011;5013;51.840;8.276;2022-12-08T12:26:00;4.93;;;4.63;;
9948;SDS011;5013;51.840;8.276;2022-12-08T12:28:30;4.23;;;4.00;;
9948;SDS011;5013;51.840;8.276;2022-12-08T12:31:11;3.73;;;3.43;;
9948;SDS011;5013;51.840;8.276;2022-12-08T12:33:40;3.90;;;3.43;;
9948;SDS011;5013;51.840;8.276;2022-12-08T12:36:07;4.07;;;3.77;;
9948;SDS011;5013;51.840;8.276;2022-12-08T12:38:35;3.33;;;3.17;;
9948;SDS011;5013;51.840;8.276;2022-12-08T12:41:24;2.77;;;2.67;;
9948;SDS011;5013;51.840;8.276;2022-12-08T12:44:07;2.43;;;2.33;;
9948;SDS011;5013;51.840;8.276;2022-12-08T12:46:37;3.87;;;2.90;;
9948;SDS011;5013;51.840;8.276;2022-12-08T12:57:56;3.87;;;3.67;;
9948;SDS011;5013;51.840;8.276;2022-12-08T13:00:23;3.97;;;3.77;;
9948;SDS011;5013;51.840;8.276;2022-12-08T13:02:55;4.50;;;3.70;;
9948;SDS011;5013;51.840;8.276;2022-12-08T13:05:26;7.33;;;6.73;;
9948;SDS011;5013;51.840;8.276;2022-12-08T13:10:31;6.03;;;5.03;;
9948;SDS011;5013;51.840;8.276;2022-12-08T13:15:38;5.43;;;5.03;;
9948;SDS011;5013;51.840;8.276;2022-12-08T13:18:06;4.77;;;4.47;;
9948;SDS011;5013;51.840;8.276;2022-12-08T13:20:47;5.03;;;4.63;;
9948;SDS011;5013;51.840;8.276;2022-12-08T13:23:29;6.50;;;6.00;;
9948;SDS011;5013;51.840;8.276;2022-12-08T13:26:27;5.73;;;5.23;;
9948;SDS011;5013;51.840;8.276;2022-12-08T13:39:58;5.37;;;5.07;;
9948;SDS011;5013;51.840;8.276;2022-12-08T13:45:49;6.40;;;5.90;;
9948;SDS011;5013;51.840;8.276;2022-12-08T13:48:37;6.20;;;5.80;;
9948;SDS011;5013;51.840;8.276;2022-12-08T13:51:18;6.10;;;5.60;;
9948;SDS011;5013;51.840;8.276;2022-12-08T13:53:54;9.33;;;7.20;;
9948;SDS011;5013;51.840;8.276;2022-12-08T13:56:25;5.87;;;5.37;;
9948;SDS011;5013;51.840;8.276;2022-12-08T13:58:51;5.83;;;5.37;;
9948;SDS011;5013;51.840;8.276;2022-12-08T14:01:32;5.30;;;4.90;;
9948;SDS011;5013;51.840;8.276;2022-12-08T14:04:05;5.90;;;5.40;;
9948;SDS011;5013;51.840;8.276;2022-12-08T14:06:37;5.57;;;5.17;;
9948;SDS011;5013;51.840;8.276;2022-12-08T14:09:11;6.63;;;5.60;;
9948;SDS011;5013;51.840;8.276;2022-12-08T14:11:43;8.67;;;7.67;;
9948;SDS011;5013;51.840;8.276;2022-12-08T14:17:10;5.90;;;5.50;;
9948;SDS011;5013;51.840;8.276;2022-12-08T14:19:38;6.43;;;5.93;;
9948;SDS011;5013;51.840;8.276;2022-12-08T14:22:10;7.13;;;6.53;;
9948;SDS011;5013;51.840;8.276;2022-12-08T14:24:37;6.90;;;6.40;;
9948;SDS011;5013;51.840;8.276;2022-12-08T14:27:04;7.30;;;6.70;;
9948;SDS011;5013;51.840;8.276;2022-12-08T14:32:01;7.83;;;7.20;;
9948;SDS011;5013;51.840;8.276;2022-12-08T14:34:26;8.47;;;7.83;;
9948;SDS011;5013;51.840;8.276;2022-12-08T14:36:52;7.40;;;6.90;;
9948;SDS011;5013;51.840;8.276;2022-12-08T14:39:18;6.93;;;6.37;;
9948;SDS011;5013;51.840;8.276;2022-12-08T14:41:58;7.53;;;6.77;;
9948;SDS011;5013;51.840;8.276;2022-12-08T14:44:24;7.33;;;6.63;;
9948;SDS011;5013;51.840;8.276;2022-12-08T14:49:33;8.87;;;7.50;;
9948;SDS011;5013;51.840;8.276;2022-12-08T14:52:07;15.80;;;11.43;;
9948;SDS011;5013;51.840;8.276;2022-12-08T14:54:35;10.80;;;9.70;;
9948;SDS011;5013;51.840;8.276;2022-12-08T14:57:02;9.07;;;8.27;;
9948;SDS011;5013;51.840;8.276;2022-12-08T14:59:29;8.03;;;7.23;;
9948;SDS011;5013;51.840;8.276;2022-12-08T15:02:12;9.37;;;8.40;;
9948;SDS011;5013;51.840;8.276;2022-12-08T15:04:57;7.43;;;6.83;;
9948;SDS011;5013;51.840;8.276;2022-12-08T15:07:26;8.33;;;7.63;;
9948;SDS011;5013;51.840;8.276;2022-12-08T15:15:27;15.10;;;10.10;;
9948;SDS011;5013;51.840;8.276;2022-12-08T15:18:00;18.87;;;12.00;;
9948;SDS011;5013;51.840;8.276;2022-12-08T15:23:17;12.10;;;10.00;;
9948;SDS011;5013;51.840;8.276;2022-12-08T15:25:55;12.53;;;10.27;;
9948;SDS011;5013;51.840;8.276;2022-12-08T15:31:43;11.87;;;10.27;;
9948;SDS011;5013;51.840;8.276;2022-12-08T15:34:09;9.73;;;8.70;;
9948;SDS011;5013;51.840;8.276;2022-12-08T15:36:34;11.83;;;10.63;;
9948;SDS011;5013;51.840;8.276;2022-12-08T15:39:02;11.17;;;9.60;;
9948;SDS011;5013;51.840;8.276;2022-12-08T15:41:43;12.20;;;11.10;;
9948;SDS011;5013;51.840;8.276;2022-12-08T15:44:08;15.93;;;13.50;;
9948;SDS011;5013;51.840;8.276;2022-12-08T15:46:34;15.93;;;14.23;;
9948;SDS011;5013;51.840;8.276;2022-12-08T15:49:00;19.40;;;17.40;;
9948;SDS011;5013;51.840;8.276;2022-12-08T15:51:26;19.10;;;17.20;;
9948;SDS011;5013;51.840;8.276;2022-12-08T15:53:51;23.77;;;21.17;;
9948;SDS011;5013;51.840;8.276;2022-12-08T15:56:17;27.30;;;24.30;;
9948;SDS011;5013;51.840;8.276;2022-12-08T15:58:43;26.87;;;24.00;;
9948;SDS011;5013;51.840;8.276;2022-12-08T16:01:12;28.20;;;25.13;;
9948;SDS011;5013;51.840;8.276;2022-12-08T16:03:38;26.87;;;24.07;;
9948;SDS011;5013;51.840;8.276;2022-12-08T16:06:03;31.50;;;28.30;;
9948;SDS011;5013;51.840;8.276;2022-12-08T16:08:32;28.20;;;25.20;;
9948;SDS011;5013;51.840;8.276;2022-12-08T16:10:58;27.27;;;24.43;;
9948;SDS011;5013;51.840;8.276;2022-12-08T16:13:42;26.30;;;23.60;;
9948;SDS011;5013;51.840;8.276;2022-12-08T16:16:17;27.60;;;24.70;;
9948;SDS011;5013;51.840;8.276;2022-12-08T16:18:47;28.53;;;25.53;;
9948;SDS011;5013;51.840;8.276;2022-12-08T16:21:15;29.07;;;25.87;;
9948;SDS011;5013;51.840;8.276;2022-12-08T16:23:41;31.03;;;26.93;;
9948;SDS011;5013;51.840;8.276;2022-12-08T16:26:10;33.27;;;29.57;;
9948;SDS011;5013;51.840;8.276;2022-12-08T16:28:41;30.87;;;26.17;;
9948;SDS011;5013;51.840;8.276;2022-12-08T16:31:08;30.07;;;26.57;;
9948;SDS011;5013;51.840;8.276;2022-12-08T16:33:35;31.47;;;28.07;;
9948;SDS011;5013;51.840;8.276;2022-12-08T16:36:01;32.97;;;29.37;;
9948;SDS011;5013;51.840;8.276;2022-12-08T16:38:26;31.47;;;28.10;;
9948;SDS011;5013;51.840;8.276;2022-12-08T16:40:52;28.90;;;24.83;;
9948;SDS011;5013;51.840;8.276;2022-12-08T16:43:36;27.10;;;23.67;;
9948;SDS011;5013;51.840;8.276;2022-12-08T16:46:02;32.17;;;25.23;;
9948;SDS011;5013;51.840;8.276;2022-12-08T16:48:28;30.80;;;26.17;;
9948;SDS011;5013;51.840;8.276;2022-12-08T16:50:54;30.47;;;25.83;;
9948;SDS011;5013;51.840;8.276;2022-12-08T16:53:20;28.43;;;24.33;;
9948;SDS011;5013;51.840;8.276;2022-12-08T16:55:46;27.80;;;24.90;;
9948;SDS011;5013;51.840;8.276;2022-12-08T16:58:13;27.67;;;23.97;;
9948;SDS011;5013;51.840;8.276;2022-12-08T17:00:39;27.77;;;24.13;;
9948;SDS011;5013;51.840;8.276;2022-12-08T17:03:05;29.10;;;25.63;;
9948;SDS011;5013;51.840;8.276;2022-12-08T17:05:34;30.37;;;26.47;;
9948;SDS011;5013;51.840;8.276;2022-12-08T17:08:00;33.07;;;26.83;;
9948;SDS011;5013;51.840;8.276;2022-12-08T17:10:27;30.83;;;25.27;;